Time;durP1;ratioP1;P1;durP2;ratioP2;P2;SDS_P1;SDS_P2;PMS_P1;PMS_P2;Temp;Humidity;BMP_temperature;BMP_pressure;BME280_temperature;BME280_humidity;BME280_pressure;Samples;Min_cycle;Max_cycle;Signal;HPM_P1;HPM_P2
2024/04/17 00:02:09;;;;;;;6.65;5.00;;;6.40;99.90;;;;;;5417334;26;20236;-59
2024/04/17 00:04:38;;;;;;;7.57;5.10;;;6.50;99.90;;;;;;5417198;26;20801;-60
2024/04/17 00:07:06;;;;;;;6.90;5.25;;;6.50;99.90;;;;;;5417101;26;20329;-59
2024/04/17 00:09:34;;;;;;;8.43;6.47;;;6.50;99.90;;;;;;5416870;26;20286;-59
2024/04/17 00:12:00;;;;;;;7.65;4.95;;;6.50;99.90;;;;;;5416806;26;20625;-59
2024/04/17 00:14:29;;;;;;;6.43;5.33;;;6.50;99.90;;;;;;5417107;26;20289;-58
2024/04/17 00:16:57;;;;;;;7.32;5.22;;;6.50;99.90;;;;;;5416871;26;20584;-60
2024/04/17 00:19:25;;;;;;;5.97;5.38;;;6.50;99.90;;;;;;5417100;26;20344;-59
2024/04/17 00:21:51;;;;;;;8.52;5.35;;;6.50;99.90;;;;;;5416843;26;20273;-59
2024/04/17 00:24:20;;;;;;;10.80;5.60;;;6.50;99.90;;;;;;5416901;26;20320;-59
2024/04/17 00:26:45;;;;;;;6.32;5.05;;;6.50;99.90;;;;;;5416782;26;20508;-60
2024/04/17 00:29:14;;;;;;;9.07;5.30;;;6.50;99.90;;;;;;5418402;26;20644;-59
2024/04/17 00:31:40;;;;;;;6.68;5.25;;;6.50;99.90;;;;;;5420154;26;20272;-59
2024/04/17 00:34:11;;;;;;;6.50;5.13;;;6.40;99.90;;;;;;5420376;26;20308;-60
2024/04/17 00:36:36;;;;;;;7.78;4.85;;;6.40;99.90;;;;;;5420149;26;20452;-60
2024/04/17 00:39:05;;;;;;;5.70;5.07;;;6.40;99.90;;;;;;5419940;26;20211;-60
2024/04/17 00:41:31;;;;;;;7.00;5.00;;;6.40;99.90;;;;;;5419979;26;20224;-59
2024/04/17 00:43:59;;;;;;;8.40;5.20;;;6.40;99.90;;;;;;5420068;26;20253;-59
2024/04/17 00:46:25;;;;;;;5.88;5.13;;;6.30;99.90;;;;;;5420113;26;20267;-59
2024/04/17 00:48:54;;;;;;;8.98;5.95;;;6.30;99.90;;;;;;5420181;26;20321;-59
2024/04/17 00:51:22;;;;;;;5.43;4.93;;;6.30;99.90;;;;;;5419860;26;20332;-59
2024/04/17 00:53:51;;;;;;;5.90;5.32;;;6.30;99.90;;;;;;5420086;26;20219;-59
2024/04/17 00:56:17;;;;;;;9.55;5.28;;;6.30;99.90;;;;;;5420247;26;20764;-60
2024/04/17 00:58:45;;;;;;;7.70;5.73;;;6.30;99.90;;;;;;5419930;26;20316;-59
2024/04/17 01:01:11;;;;;;;8.98;6.00;;;6.20;99.90;;;;;;5419854;26;20449;-60
2024/04/17 01:03:39;;;;;;;7.23;5.73;;;6.20;99.90;;;;;;5419512;26;20316;-60
2024/04/17 01:06:05;;;;;;;11.02;5.35;;;6.20;99.90;;;;;;5420123;26;20697;-60
2024/04/17 01:08:37;;;;;;;10.10;6.23;;;6.10;99.90;;;;;;5422757;26;20379;-59
2024/04/17 01:11:03;;;;;;;8.57;5.88;;;6.10;99.90;;;;;;5422594;26;20563;-59
2024/04/17 01:13:32;;;;;;;10.50;6.40;;;6.00;99.90;;;;;;5419884;26;20258;-60
2024/04/17 01:15:58;;;;;;;8.75;5.18;;;6.00;99.90;;;;;;5419703;26;20694;-60
2024/04/17 01:18:27;;;;;;;6.63;5.10;;;6.00;99.90;;;;;;5419819;26;20327;-60
2024/04/17 01:20:55;;;;;;;5.85;4.95;;;6.00;99.90;;;;;;5419855;26;20215;-60
2024/04/17 01:23:23;;;;;;;10.48;5.20;;;6.00;99.90;;;;;;5419593;26;20717;-59
2024/04/17 01:25:51;;;;;;;9.80;5.15;;;6.00;99.90;;;;;;5420140;26;20283;-59
2024/04/17 01:28:20;;;;;;;11.38;5.68;;;6.00;99.90;;;;;;5419560;26;20262;-59
2024/04/17 01:30:46;;;;;;;9.10;5.70;;;6.00;99.90;;;;;;5419244;26;20266;-60
2024/04/17 01:33:14;;;;;;;8.37;6.20;;;6.00;99.90;;;;;;5419149;26;20323;-60
2024/04/17 01:35:40;;;;;;;7.03;5.80;;;6.00;99.90;;;;;;5419106;26;20227;-59
2024/04/17 01:38:08;;;;;;;7.80;5.43;;;6.10;99.90;;;;;;5419173;26;20215;-60
2024/04/17 01:40:34;;;;;;;8.27;4.85;;;6.10;99.90;;;;;;5418305;26;20329;-60
2024/04/17 01:43:05;;;;;;;7.80;5.00;;;6.10;99.90;;;;;;5419215;26;20370;-60
2024/04/17 01:45:31;;;;;;;7.15;5.57;;;6.10;99.90;;;;;;5419188;26;20628;-59
2024/04/17 01:48:00;;;;;;;8.13;5.32;;;6.10;99.90;;;;;;5419246;26;20219;-60
2024/04/17 01:50:27;;;;;;;8.93;4.80;;;6.10;99.90;;;;;;5418640;26;20598;-58
2024/04/17 01:52:55;;;;;;;10.57;5.60;;;6.10;99.90;;;;;;5419079;26;20320;-60
2024/04/17 01:55:21;;;;;;;7.15;5.13;;;6.00;99.90;;;;;;5419061;26;20334;-60
2024/04/17 01:57:50;;;;;;;7.70;4.93;;;6.00;99.90;;;;;;5419691;26;20227;-59
2024/04/17 02:00:18;;;;;;;11.27;5.22;;;6.00;99.90;;;;;;5419411;26;20516;-58
2024/04/17 02:02:47;;;;;;;8.93;4.95;;;6.00;99.90;;;;;;5435124;21;20783;-66
2024/04/17 02:05:12;;;;;;;9.48;4.45;;;5.90;99.90;;;;;;5420094;26;20709;-64
2024/04/17 02:07:41;;;;;;;9.87;4.73;;;5.90;99.90;;;;;;5419655;26;20328;-65
2024/04/17 02:10:07;;;;;;;9.35;5.00;;;5.80;99.90;;;;;;5419261;26;20445;-65
2024/04/17 02:12:35;;;;;;;8.10;4.50;;;5.80;99.90;;;;;;5419205;26;20656;-63
2024/04/17 02:15:01;;;;;;;6.55;5.57;;;5.80;99.90;;;;;;5419373;26;20713;-63
2024/04/17 02:17:32;;;;;;;9.50;4.63;;;5.70;99.90;;;;;;5419448;26;20219;-64
2024/04/17 02:19:58;;;;;;;11.35;5.07;;;5.70;99.90;;;;;;5419119;26;20315;-64
2024/04/17 02:22:26;;;;;;;10.00;5.40;;;5.60;99.90;;;;;;5418879;26;20234;-65
2024/04/17 02:24:52;;;;;;;8.18;3.90;;;5.60;99.90;;;;;;5418937;26;20504;-64
2024/04/17 02:27:21;;;;;;;7.37;4.20;;;5.60;99.90;;;;;;5418936;26;20222;-63
2024/04/17 02:29:47;;;;;;;9.57;4.47;;;5.60;99.90;;;;;;5421394;26;20285;-65
2024/04/17 02:32:16;;;;;;;9.68;5.53;;;5.50;99.90;;;;;;5420199;26;20300;-65
2024/04/17 02:34:44;;;;;;;8.85;4.28;;;5.50;99.90;;;;;;5418866;26;20249;-65
2024/04/17 02:37:13;;;;;;;6.40;3.67;;;5.50;99.90;;;;;;5419982;26;20215;-64
2024/04/17 02:39:38;;;;;;;9.27;4.50;;;5.40;99.90;;;;;;5419806;26;20307;-64
2024/04/17 02:42:07;;;;;;;14.77;5.00;;;5.40;99.90;;;;;;5418830;26;20246;-65
2024/04/17 02:44:33;;;;;;;8.13;3.90;;;5.40;99.90;;;;;;5418833;26;20636;-64
2024/04/17 02:47:01;;;;;;;8.37;4.60;;;5.30;99.90;;;;;;5418712;26;20215;-63
2024/04/17 02:49:27;;;;;;;4.70;3.55;;;5.30;99.90;;;;;;5419447;26;20589;-64
2024/04/17 02:51:58;;;;;;;5.30;4.00;;;5.30;99.90;;;;;;5417286;26;20640;-64
2024/04/17 02:54:24;;;;;;;6.72;4.40;;;5.20;99.90;;;;;;5419572;26;20453;-65
2024/04/17 02:56:52;;;;;;;9.90;4.03;;;5.20;99.90;;;;;;5419780;26;20810;-65
2024/04/17 02:59:18;;;;;;;9.25;4.57;;;5.20;99.90;;;;;;5421753;26;20623;-65
2024/04/17 03:01:47;;;;;;;8.97;3.60;;;5.10;99.90;;;;;;5419628;26;20289;-65
2024/04/17 03:04:13;;;;;;;6.85;4.25;;;5.10;99.90;;;;;;5420158;26;20827;-65
2024/04/17 03:06:41;;;;;;;10.90;4.30;;;5.00;99.90;;;;;;5418312;26;20231;-65
2024/04/17 03:09:10;;;;;;;7.50;3.67;;;5.00;99.90;;;;;;5418721;26;20516;-64
2024/04/17 03:11:38;;;;;;;6.15;3.45;;;5.00;99.90;;;;;;5418516;26;20554;-64
2024/04/17 03:14:04;;;;;;;9.50;4.32;;;4.90;99.90;;;;;;5418937;26;20312;-64
2024/04/17 03:16:33;;;;;;;8.00;4.00;;;4.90;99.90;;;;;;5418615;26;20226;-65
2024/04/17 03:18:58;;;;;;;11.90;3.35;;;4.90;99.90;;;;;;5418764;26;20691;-64
2024/04/17 03:21:28;;;;;;;5.40;3.60;;;4.90;99.90;;;;;;5417822;26;20219;-64
2024/04/17 03:23:54;;;;;;;8.55;3.55;;;4.80;99.90;;;;;;5418122;26;20258;-64
2024/04/17 03:26:25;;;;;;;4.87;3.17;;;4.80;99.90;;;;;;5418030;26;20270;-64
2024/04/17 03:28:51;;;;;;;9.27;3.67;;;4.80;99.90;;;;;;5417760;26;20512;-64
2024/04/17 03:31:19;;;;;;;5.23;3.50;;;4.80;99.90;;;;;;5417921;26;20818;-64
2024/04/17 03:33:46;;;;;;;12.63;4.53;;;4.80;99.90;;;;;;5418351;26;20212;-64
2024/04/17 03:36:14;;;;;;;9.40;2.72;;;4.80;99.90;;;;;;5417741;26;20257;-64
2024/04/17 03:38:43;;;;;;;5.85;3.03;;;4.80;99.90;;;;;;5418295;26;20273;-64
2024/04/17 03:41:11;;;;;;;6.22;3.30;;;4.80;99.90;;;;;;5417862;26;20274;-64
2024/04/17 03:43:42;;;;;;;7.20;3.40;;;4.80;99.90;;;;;;5417851;26;20733;-63
2024/04/17 03:46:10;;;;;;;6.97;3.72;;;4.80;99.90;;;;;;5417625;26;20223;-64
2024/04/17 03:48:39;;;;;;;9.25;3.10;;;4.70;99.90;;;;;;5417541;26;20320;-64
2024/04/17 03:51:05;;;;;;;6.85;3.63;;;4.70;99.90;;;;;;5417435;26;20275;-65
2024/04/17 03:53:33;;;;;;;9.90;3.40;;;4.70;99.90;;;;;;5417235;26;20274;-64
2024/04/17 03:55:59;;;;;;;8.27;2.97;;;4.70;99.90;;;;;;5417318;26;20328;-65
2024/04/17 03:58:28;;;;;;;4.27;2.70;;;4.70;99.90;;;;;;5417221;26;20219;-66
2024/04/17 04:00:56;;;;;;;7.20;3.58;;;4.70;99.90;;;;;;5417757;26;20457;-63
2024/04/17 04:03:25;;;;;;;6.57;2.72;;;4.70;99.90;;;;;;5416576;26;20261;-64
2024/04/17 04:05:51;;;;;;;8.93;3.55;;;4.70;99.90;;;;;;5417313;26;20311;-66
2024/04/17 04:08:19;;;;;;;6.03;3.30;;;4.70;99.90;;;;;;5418064;26;20274;-63
2024/04/17 04:13:35;;;;;;;4.60;2.97;;;4.60;99.90;;;;;;5508951;25;20682;-63
2024/04/17 04:16:01;;;;;;;10.98;2.90;;;4.60;99.90;;;;;;5472290;26;20630;-64
2024/04/17 04:18:29;;;;;;;8.13;3.23;;;4.60;99.90;;;;;;5472097;26;20222;-64
2024/04/17 04:20:55;;;;;;;8.05;2.70;;;4.60;99.90;;;;;;5472123;26;20288;-63
2024/04/17 04:23:24;;;;;;;8.93;3.30;;;4.60;99.90;;;;;;5472277;26;20229;-64
2024/04/17 04:25:49;;;;;;;7.68;2.70;;;4.60;99.90;;;;;;5472890;26;20225;-64
2024/04/17 04:28:18;;;;;;;9.67;3.00;;;4.60;99.90;;;;;;5472267;26;20314;-64
2024/04/17 04:30:46;;;;;;;9.15;3.15;;;4.60;99.90;;;;;;5472071;26;20314;-64
2024/04/17 04:33:15;;;;;;;9.93;3.30;;;4.60;99.90;;;;;;5471982;26;20259;-64
2024/04/17 04:35:43;;;;;;;9.68;3.78;;;4.60;99.90;;;;;;5472254;26;20273;-64
2024/04/17 04:38:09;;;;;;;4.38;3.05;;;4.70;99.90;;;;;;5472177;26;20301;-63
2024/04/17 04:40:37;;;;;;;6.33;3.43;;;4.70;99.90;;;;;;5472125;26;20233;-64
2024/04/17 04:43:04;;;;;;;12.25;3.22;;;4.80;99.90;;;;;;5471808;26;20450;-64
2024/04/17 04:45:33;;;;;;;6.30;2.92;;;4.90;99.90;;;;;;5473216;26;20329;-64
2024/04/17 04:48:01;;;;;;;5.32;3.22;;;4.90;99.90;;;;;;5473241;26;20217;-63
2024/04/17 04:50:30;;;;;;;6.28;2.97;;;5.00;99.90;;;;;;5472370;26;20248;-62
2024/04/17 04:52:56;;;;;;;12.07;3.35;;;5.00;99.90;;;;;;5472321;26;20313;-64
2024/04/17 04:55:24;;;;;;;10.43;2.87;;;5.00;99.90;;;;;;5472540;26;20703;-64
2024/04/17 04:57:50;;;;;;;5.03;3.15;;;5.00;99.90;;;;;;5472277;26;20259;-64
2024/04/17 05:00:18;;;;;;;2.90;2.43;;;5.00;99.90;;;;;;5473100;26;20237;-65
2024/04/17 05:02:44;;;;;;;8.57;2.83;;;5.00;99.90;;;;;;5474529;26;20248;-65
2024/04/17 05:05:15;;;;;;;6.50;2.93;;;4.90;99.90;;;;;;5473007;26;20217;-65
2024/04/17 05:07:41;;;;;;;5.45;3.03;;;4.90;99.90;;;;;;5473183;26;20480;-64
2024/04/17 05:10:10;;;;;;;5.47;3.10;;;4.90;99.90;;;;;;5472839;26;20564;-63
2024/04/17 05:12:35;;;;;;;3.53;2.53;;;4.90;99.90;;;;;;5473905;26;20545;-65
2024/04/17 05:15:04;;;;;;;10.53;2.97;;;4.90;99.90;;;;;;5474856;26;20226;-64
2024/04/17 05:17:30;;;;;;;7.18;2.65;;;4.90;99.90;;;;;;5474664;26;20229;-64
2024/04/17 05:19:58;;;;;;;7.50;2.57;;;4.90;99.90;;;;;;5474529;26;20674;-65
2024/04/17 05:22:27;;;;;;;7.15;2.80;;;4.90;99.90;;;;;;5474432;26;20256;-65
2024/04/17 05:24:55;;;;;;;6.07;2.63;;;5.00;99.90;;;;;;5457477;26;20225;-64
2024/04/17 05:27:21;;;;;;;6.75;2.85;;;5.00;99.90;;;;;;5456997;26;20214;-64
2024/04/17 05:29:49;;;;;;;9.30;3.03;;;5.10;99.90;;;;;;5456388;26;20256;-63
2024/04/17 05:32:15;;;;;;;4.68;2.10;;;5.20;99.90;;;;;;5457345;26;20511;-65
2024/04/17 05:34:44;;;;;;;5.57;2.60;;;5.30;99.90;;;;;;5456125;26;20210;-64
2024/04/17 05:37:10;;;;;;;3.92;2.67;;;5.40;99.90;;;;;;5456169;26;20221;-65
2024/04/17 05:39:41;;;;;;;6.70;2.83;;;5.40;99.90;;;;;;5456368;26;20319;-64
2024/04/17 05:42:07;;;;;;;9.45;2.95;;;5.60;99.90;;;;;;5456444;26;20455;-64
2024/04/17 05:44:35;;;;;;;8.33;3.30;;;5.60;99.90;;;;;;5458558;26;20217;-64
2024/04/17 05:47:01;;;;;;;5.88;2.85;;;5.60;99.90;;;;;;5458584;26;20455;-64
2024/04/17 05:49:29;;;;;;;6.23;4.17;;;5.60;99.90;;;;;;5457883;26;20214;-67
2024/04/17 05:51:56;;;;;;;9.32;3.45;;;5.60;99.90;;;;;;5459290;26;20523;-64
2024/04/17 05:54:25;;;;;;;7.22;2.88;;;5.60;99.90;;;;;;5459566;26;20269;-64
2024/04/17 05:56:53;;;;;;;7.53;2.72;;;5.60;99.90;;;;;;5455956;26;20244;-63
2024/04/17 05:59:22;;;;;;;4.68;2.85;;;5.60;99.90;;;;;;5455446;26;20210;-64
2024/04/17 06:01:48;;;;;;;6.85;3.10;;;5.50;99.90;;;;;;5455393;26;20322;-64
2024/04/17 06:04:16;;;;;;;4.93;2.97;;;5.60;99.90;;;;;;5454996;26;20222;-64
2024/04/17 06:06:42;;;;;;;7.78;3.72;;;5.50;99.90;;;;;;5455270;26;20253;-64
2024/04/17 06:09:10;;;;;;;5.00;2.80;;;5.50;99.90;;;;;;5455983;26;20222;-64
2024/04/17 06:11:36;;;;;;;8.93;2.42;;;5.50;99.90;;;;;;5455165;26;20502;-66
2024/04/17 06:14:08;;;;;;;13.43;3.50;;;5.50;99.90;;;;;;5455512;26;20248;-63
2024/04/17 06:16:33;;;;;;;7.63;2.85;;;5.50;99.90;;;;;;5454876;26;20217;-64
2024/04/17 06:19:02;;;;;;;7.27;2.87;;;5.50;99.90;;;;;;5455380;26;20218;-64
2024/04/17 06:21:28;;;;;;;7.97;2.97;;;5.50;99.90;;;;;;5454751;26;20226;-65
2024/04/17 06:23:56;;;;;;;11.53;3.47;;;5.60;99.90;;;;;;5455563;26;20214;-65
2024/04/17 06:26:22;;;;;;;4.05;2.70;;;5.60;99.90;;;;;;5455434;26;20584;-63
2024/04/17 06:28:50;;;;;;;7.07;2.83;;;5.70;99.90;;;;;;5454886;26;20226;-63
2024/04/17 06:31:19;;;;;;;5.82;2.60;;;5.90;99.90;;;;;;5454957;26;20467;-64
2024/04/17 06:33:47;;;;;;;5.40;3.35;;;6.00;99.90;;;;;;5454383;26;20295;-63
2024/04/17 06:36:13;;;;;;;3.03;2.42;;;6.20;99.90;;;;;;5453369;26;20676;-64
2024/04/17 06:38:42;;;;;;;7.03;3.50;;;6.40;99.90;;;;;;5454691;26;20230;-64
2024/04/17 06:41:08;;;;;;;13.38;2.80;;;6.50;99.90;;;;;;5455043;26;20538;-64
2024/04/17 06:43:36;;;;;;;5.28;2.60;;;6.50;99.90;;;;;;5454977;26;20316;-64
2024/04/17 06:46:05;;;;;;;6.47;2.80;;;6.50;99.90;;;;;;5454151;26;20751;-63
2024/04/17 06:48:33;;;;;;;4.07;2.50;;;6.60;99.90;;;;;;5455666;26;20214;-64
2024/04/17 06:51:02;;;;;;;9.40;4.05;;;6.70;99.90;;;;;;5455353;26;20584;-64
2024/04/17 06:53:28;;;;;;;12.57;3.67;;;6.80;99.90;;;;;;5454034;26;20226;-65
2024/04/17 06:55:57;;;;;;;7.53;3.40;;;6.90;99.90;;;;;;5454192;26;20268;-64
2024/04/17 06:58:23;;;;;;;4.68;3.10;;;7.00;99.90;;;;;;5453635;26;20696;-64
2024/04/17 07:00:52;;;;;;;3.77;2.50;;;7.20;99.90;;;;;;5454018;26;20267;-64
2024/04/17 07:03:18;;;;;;;5.75;3.20;;;7.20;99.90;;;;;;5455605;26;20472;-65
2024/04/17 07:05:49;;;;;;;9.17;2.67;;;7.40;99.90;;;;;;5456238;26;20218;-64
2024/04/17 07:08:15;;;;;;;7.82;2.83;;;7.50;99.90;;;;;;5454278;26;20459;-65
2024/04/17 07:10:43;;;;;;;7.17;3.30;;;7.60;99.90;;;;;;5455674;26;20700;-66
2024/04/17 07:13:09;;;;;;;3.53;2.85;;;7.70;99.90;;;;;;5454138;26;20554;-65
2024/04/17 07:15:37;;;;;;;3.77;2.70;;;7.70;99.90;;;;;;5454014;26;20226;-65
2024/04/17 07:18:03;;;;;;;9.65;2.90;;;7.70;99.90;;;;;;5454624;26;20230;-65
2024/04/17 07:20:32;;;;;;;4.32;2.72;;;7.70;99.90;;;;;;5454567;26;20237;-64
2024/04/17 07:23:01;;;;;;;6.80;3.10;;;7.80;99.90;;;;;;5454406;26;20233;-65
2024/04/17 07:25:29;;;;;;;7.25;3.50;;;7.90;99.90;;;;;;5454446;26;20218;-65
2024/04/17 07:27:55;;;;;;;5.82;2.78;;;8.00;99.90;;;;;;5454584;26;20318;-64
2024/04/17 07:30:23;;;;;;;6.13;3.27;;;8.10;99.90;;;;;;5454142;26;20226;-65
2024/04/17 07:32:49;;;;;;;10.30;2.60;;;8.20;99.90;;;;;;5454072;26;20222;-65
2024/04/17 07:35:18;;;;;;;3.80;2.25;;;8.10;99.90;;;;;;5454963;26;20218;-65
2024/04/17 07:37:44;;;;;;;7.88;3.00;;;8.20;99.90;;;;;;5455451;26;20534;-65
2024/04/17 07:40:15;;;;;;;5.25;2.92;;;8.20;99.90;;;;;;5455253;26;20214;-65
2024/04/17 07:42:41;;;;;;;7.32;3.70;;;8.30;99.90;;;;;;5454074;26;20226;-64
2024/04/17 07:45:10;;;;;;;6.37;2.40;;;8.40;99.90;;;;;;5454807;26;20252;-65
2024/04/17 07:47:36;;;;;;;4.13;2.40;;;8.40;99.90;;;;;;5455173;26;20447;-64
2024/04/17 07:50:04;;;;;;;6.70;2.72;;;8.40;99.90;;;;;;5455575;26;20660;-64
2024/04/17 07:52:30;;;;;;;9.10;3.08;;;8.30;99.90;;;;;;5454038;26;20667;-64
2024/04/17 07:54:59;;;;;;;5.93;2.30;;;8.20;99.90;;;;;;5454920;26;20222;-64
2024/04/17 07:57:28;;;;;;;4.18;2.15;;;8.20;99.90;;;;;;5454360;26;20455;-64
2024/04/17 07:59:56;;;;;;;5.43;2.50;;;8.30;99.90;;;;;;5453782;26;20558;-64
2024/04/17 08:02:22;;;;;;;4.77;2.93;;;8.40;99.90;;;;;;5453850;26;20222;-65
2024/04/17 08:04:51;;;;;;;4.20;2.30;;;8.70;99.90;;;;;;5454780;26;20898;-64
2024/04/17 08:07:16;;;;;;;4.17;3.07;;;8.90;99.90;;;;;;5456312;26;20507;-64
2024/04/17 08:09:45;;;;;;;7.90;3.27;;;9.10;99.90;;;;;;5455830;26;20455;-65
2024/04/17 08:12:11;;;;;;;6.20;2.77;;;9.40;99.90;;;;;;5453776;26;20516;-65
2024/04/17 08:14:42;;;;;;;6.97;2.97;;;9.70;99.90;;;;;;5453734;26;20459;-64
2024/04/17 08:17:08;;;;;;;4.63;2.57;;;9.90;99.90;;;;;;5453966;26;20320;-65
2024/04/17 08:19:36;;;;;;;6.67;3.73;;;10.00;99.90;;;;;;5453766;26;20459;-65
2024/04/17 08:22:03;;;;;;;3.80;3.00;;;10.10;99.90;;;;;;5453749;26;21117;-66
2024/04/17 08:24:31;;;;;;;4.73;2.40;;;10.20;99.90;;;;;;5453456;26;20535;-65
2024/04/17 08:26:57;;;;;;;6.00;2.73;;;10.30;99.90;;;;;;5453719;26;20583;-65
2024/04/17 08:29:26;;;;;;;6.33;3.37;;;10.30;99.90;;;;;;5454844;26;20850;-66
2024/04/17 08:31:54;;;;;;;7.30;3.57;;;10.30;99.90;;;;;;5453955;26;20527;-65
2024/04/17 08:34:22;;;;;;;4.10;2.73;;;10.20;99.90;;;;;;5452865;26;20456;-66
2024/04/17 08:36:48;;;;;;;4.97;3.07;;;10.20;99.90;;;;;;5452880;26;20503;-65
2024/04/17 08:39:17;;;;;;;6.80;3.40;;;10.00;99.90;;;;;;5452822;26;20452;-64
2024/04/17 08:41:47;;;;;;;4.80;2.40;;;10.10;99.90;;;;;;5453477;26;20238;-64
2024/04/17 08:44:18;;;;;;;6.33;2.80;;;10.10;99.90;;;;;;5452437;26;20463;-65
2024/04/17 08:46:46;;;;;;;4.77;2.63;;;10.20;99.90;;;;;;5452835;26;20463;-64
2024/04/17 08:49:18;;;;;;;3.90;2.20;;;10.20;99.90;;;;;;5452546;26;20569;-65
2024/04/17 08:51:46;;;;;;;4.00;2.30;;;10.30;99.90;;;;;;5453002;26;20463;-64
2024/04/17 08:54:16;;;;;;;4.90;2.17;;;10.30;99.40;;;;;;5452435;26;20459;-64
2024/04/17 08:56:42;;;;;;;5.40;2.57;;;10.20;99.20;;;;;;5453345;26;20447;-64
2024/04/17 08:59:12;;;;;;;7.10;2.60;;;10.30;99.10;;;;;;5453933;26;20455;-65
2024/04/17 09:01:41;;;;;;;4.73;2.13;;;10.50;98.60;;;;;;5456748;26;20455;-64
2024/04/17 09:04:10;;;;;;;4.37;2.33;;;10.50;98.30;;;;;;5457369;26;20447;-65
2024/04/17 09:06:39;;;;;;;2.90;1.80;;;10.50;97.90;;;;;;5457690;26;20443;-66
2024/04/17 09:09:13;;;;;;;6.93;2.27;;;10.40;97.10;;;;;;5459496;26;20969;-65
2024/04/17 09:11:40;;;;;;;5.57;2.67;;;10.30;96.30;;;;;;5457471;26;20917;-64
2024/04/17 09:14:09;;;;;;;3.80;1.97;;;10.30;96.10;;;;;;5457399;26;20565;-64
2024/04/17 09:16:34;;;;;;;3.73;2.43;;;10.30;95.30;;;;;;5458394;26;20451;-65
2024/04/17 09:19:03;;;;;;;4.43;1.70;;;10.50;94.70;;;;;;5458004;26;20564;-64
2024/04/17 09:21:29;;;;;;;4.00;2.00;;;10.80;93.30;;;;;;5457404;26;20639;-64
2024/04/17 09:24:00;;;;;;;3.03;2.03;;;10.90;90.00;;;;;;5456825;26;20521;-66
2024/04/17 09:26:26;;;;;;;5.00;2.20;;;10.90;88.30;;;;;;5457063;26;20495;-64
2024/04/17 09:28:55;;;;;;;4.43;2.00;;;11.00;85.60;;;;;;5459270;26;20599;-65
2024/04/17 09:31:21;;;;;;;4.80;1.90;;;11.00;82.10;;;;;;5458818;26;20554;-66
2024/04/17 09:33:50;;;;;;;1.73;1.50;;;11.00;80.10;;;;;;5458267;26;20436;-66
2024/04/17 09:36:17;;;;;;;3.30;2.00;;;11.00;79.00;;;;;;5458375;26;20451;-65
2024/04/17 09:38:45;;;;;;;4.60;2.10;;;11.00;78.10;;;;;;5459254;26;20826;-65
2024/04/17 09:41:14;;;;;;;4.93;2.10;;;11.10;77.10;;;;;;5460563;26;20557;-66
2024/04/17 09:43:45;;;;;;;3.83;1.80;;;11.20;76.40;;;;;;5459564;26;21009;-64
2024/04/17 09:46:14;;;;;;;4.60;2.30;;;11.20;75.50;;;;;;5458916;26;20563;-65
2024/04/17 09:48:46;;;;;;;4.50;2.27;;;11.40;75.40;;;;;;5458922;26;20504;-65
2024/04/17 09:51:16;;;;;;;5.67;1.93;;;11.60;75.40;;;;;;5458509;26;20447;-65
2024/04/17 09:53:53;;;;;;;6.10;2.00;;;11.70;74.70;;;;;;5455616;26;20573;-64
2024/04/17 09:56:23;;;;;;;4.17;1.93;;;11.80;73.60;;;;;;5456840;26;20781;-64
2024/04/17 09:58:53;;;;;;;3.90;2.20;;;11.90;72.70;;;;;;5455353;26;20558;-65
2024/04/17 10:01:21;;;;;;;6.17;2.77;;;11.90;71.30;;;;;;5455920;26;20496;-66
2024/04/17 10:03:52;;;;;;;3.90;1.70;;;11.70;70.90;;;;;;5455041;26;20565;-66
2024/04/17 10:06:21;;;;;;;5.10;2.10;;;11.70;71.60;;;;;;5455680;26;20472;-65
2024/04/17 10:08:52;;;;;;;4.47;1.73;;;11.60;71.70;;;;;;5454933;26;20511;-64
2024/04/17 10:11:21;;;;;;;5.07;2.03;;;11.60;70.70;;;;;;5455510;26;21060;-65
2024/04/17 10:13:51;;;;;;;3.07;1.70;;;11.50;68.70;;;;;;5456438;26;20444;-66
2024/04/17 10:16:17;;;;;;;3.10;1.50;;;11.50;67.50;;;;;;5455835;26;20447;-65
2024/04/17 10:18:47;;;;;;;6.50;1.80;;;11.70;65.40;;;;;;5454691;26;20451;-65
2024/04/17 10:21:18;;;;;;;3.77;2.40;;;11.80;63.80;;;;;;5455039;26;20478;-65
2024/04/17 10:23:46;;;;;;;4.33;1.93;;;12.10;62.50;;;;;;5455362;26;20495;-65
2024/04/17 10:26:12;;;;;;;4.30;1.70;;;12.40;61.20;;;;;;5454926;26;20439;-65
2024/04/17 10:28:53;;;;;;;2.27;1.80;;;12.60;59.40;;;;;;5456117;26;20796;-66
2024/04/17 10:31:19;;;;;;;4.47;1.50;;;12.60;58.50;;;;;;5456579;26;20217;-65
2024/04/17 10:33:47;;;;;;;3.90;2.20;;;12.50;58.50;;;;;;5454703;26;20559;-65
2024/04/17 10:36:13;;;;;;;2.83;2.30;;;12.30;58.80;;;;;;5454234;26;20565;-65
2024/04/17 10:38:42;;;;;;;2.40;1.70;;;12.00;59.80;;;;;;5455629;26;20459;-65
2024/04/17 10:41:11;;;;;;;4.00;1.90;;;11.60;61.20;;;;;;5455402;26;20261;-65
2024/04/17 10:43:42;;;;;;;4.93;2.00;;;11.10;61.60;;;;;;5455167;26;20697;-65
2024/04/17 10:46:09;;;;;;;2.70;1.93;;;10.60;61.60;;;;;;5454968;26;20621;-64
2024/04/17 10:48:48;;;;;;;2.80;1.47;;;10.30;62.50;;;;;;5454786;26;20515;-66
2024/04/17 10:51:14;;;;;;;3.77;1.80;;;10.00;62.90;;;;;;5455542;26;20444;-66
2024/04/17 10:53:45;;;;;;;1.97;1.37;;;9.80;64.90;;;;;;5454344;26;20471;-65
2024/04/17 10:56:11;;;;;;;3.60;1.70;;;9.60;66.70;;;;;;5455362;26;20492;-64
2024/04/17 10:58:44;;;;;;;3.03;2.10;;;9.50;67.70;;;;;;5455438;26;20459;-67
2024/04/17 11:01:12;;;;;;;2.73;1.60;;;9.40;68.30;;;;;;5455683;26;20447;-64
2024/04/17 11:03:41;;;;;;;2.70;1.80;;;9.50;66.80;;;;;;5455919;26;20992;-64
2024/04/17 11:06:08;;;;;;;3.50;1.60;;;9.60;66.60;;;;;;5456417;26;20591;-65
2024/04/17 11:08:41;;;;;;;1.50;1.37;;;9.80;66.00;;;;;;5455612;26;20993;-65
2024/04/17 11:11:09;;;;;;;2.20;1.40;;;10.10;64.20;;;;;;5454690;26;20642;-64
2024/04/17 11:13:46;;;;;;;3.47;1.97;;;10.30;63.50;;;;;;5455069;26;20567;-65
2024/04/17 11:16:12;;;;;;;3.03;1.27;;;10.50;62.90;;;;;;5454749;26;20447;-65
2024/04/17 11:18:41;;;;;;;1.63;1.20;;;10.70;61.90;;;;;;5454532;26;20451;-66
2024/04/17 11:21:09;;;;;;;1.70;1.20;;;10.80;61.10;;;;;;5454057;26;20448;-65
2024/04/17 11:23:42;;;;;;;1.00;0.80;;;10.90;60.60;;;;;;5454988;26;20467;-64
2024/04/17 11:26:11;;;;;;;1.00;0.87;;;11.10;60.40;;;;;;5454869;26;20833;-64
2024/04/17 11:28:40;;;;;;;2.50;1.37;;;11.40;59.60;;;;;;5454904;26;20443;-65
2024/04/17 11:31:13;;;;;;;2.80;0.87;;;11.80;58.40;;;;;;5453434;26;20500;-65
2024/04/17 11:33:39;;;;;;;2.97;1.00;;;12.20;56.60;;;;;;5453221;26;20503;-66
2024/04/17 11:36:11;;;;;;;1.40;1.00;;;12.50;55.20;;;;;;5454675;26;20565;-65
2024/04/17 11:38:37;;;;;;;1.27;1.17;;;12.80;54.20;;;;;;5454025;26;20459;-65
2024/04/17 11:41:06;;;;;;;2.20;1.20;;;13.10;53.40;;;;;;5454819;26;20456;-65
2024/04/17 11:43:32;;;;;;;1.93;0.90;;;13.30;52.00;;;;;;5455977;26;21036;-66
2024/04/17 11:46:01;;;;;;;2.57;1.63;;;13.30;51.00;;;;;;5455927;26;20459;-67
2024/04/17 11:48:29;;;;;;;3.20;1.37;;;13.60;50.40;;;;;;5455518;26;20538;-66
2024/04/17 11:50:58;;;;;;;2.60;1.13;;;13.90;48.90;;;;;;5455183;26;20794;-65
2024/04/17 11:53:24;;;;;;;2.93;1.53;;;14.10;48.50;;;;;;5454758;26;20467;-66
2024/04/17 11:55:53;;;;;;;1.63;1.00;;;14.00;48.00;;;;;;5455569;26;20447;-64
2024/04/17 11:58:19;;;;;;;4.13;1.80;;;13.80;48.10;;;;;;5453768;26;20451;-63
2024/04/17 12:00:49;;;;;;;1.07;0.90;;;13.70;48.60;;;;;;5453351;26;20585;-65
2024/04/17 12:03:14;;;;;;;2.50;1.50;;;13.80;48.80;;;;;;5453974;26;20502;-65
2024/04/17 12:05:46;;;;;;;1.80;1.30;;;14.00;48.80;;;;;;5454045;26;20456;-65
2024/04/17 12:08:11;;;;;;;1.40;1.00;;;14.10;48.90;;;;;;5454156;26;20213;-65
2024/04/17 12:10:40;;;;;;;4.10;1.20;;;13.60;47.60;;;;;;5453409;26;20451;-64
2024/04/17 12:13:07;;;;;;;2.37;1.30;;;13.00;47.80;;;;;;5453046;26;20238;-64
2024/04/17 12:15:35;;;;;;;2.93;1.20;;;12.30;49.00;;;;;;5453788;26;20868;-66
2024/04/17 12:18:01;;;;;;;5.53;1.83;;;11.90;50.40;;;;;;5455002;26;20906;-66
2024/04/17 12:20:29;;;;;;;1.90;1.30;;;11.50;51.40;;;;;;5454089;26;20443;-64
2024/04/17 12:22:58;;;;;;;3.50;1.80;;;11.20;52.20;;;;;;5453976;26;20321;-65
2024/04/17 12:28:10;;;;;;;1.83;1.50;;;10.60;54.70;;;;;;5456997;26;20622;-65
2024/04/17 12:30:39;;;;;;;2.83;1.40;;;10.20;57.60;;;;;;5453199;26;20570;-65
2024/04/17 12:33:07;;;;;;;3.97;1.77;;;9.90;60.90;;;;;;5453902;26;20598;-66
2024/04/17 12:35:37;;;;;;;1.93;1.77;;;9.60;64.80;;;;;;5458500;26;20980;-66
2024/04/17 12:38:08;;;;;;;1.50;1.40;;;9.00;67.50;;;;;;5458940;26;20550;-65
2024/04/17 12:40:37;;;;;;;3.07;1.73;;;8.50;72.50;;;;;;5460897;26;20274;-66
2024/04/17 12:43:06;;;;;;;2.88;2.00;;;8.10;78.60;;;;;;5458984;26;20916;-66
2024/04/17 12:45:35;;;;;;;3.58;2.13;;;8.00;84.40;;;;;;5459528;26;20214;-67
2024/04/17 12:48:04;;;;;;;4.57;1.80;;;7.90;89.60;;;;;;5460032;26;20240;-65
2024/04/17 12:50:30;;;;;;;2.97;2.08;;;8.00;91.80;;;;;;5460849;26;20222;-64
2024/04/17 12:52:58;;;;;;;4.57;2.63;;;8.00;93.00;;;;;;5460664;26;20286;-66
2024/04/17 12:55:29;;;;;;;3.88;2.40;;;8.10;93.90;;;;;;5460883;26;20448;-65
2024/04/17 12:57:58;;;;;;;1.70;1.50;;;8.10;94.40;;;;;;5459878;26;20233;-65
2024/04/17 13:00:27;;;;;;;2.75;1.90;;;8.10;94.40;;;;;;5460962;26;20257;-65
2024/04/17 13:02:53;;;;;;;3.83;2.88;;;8.10;94.10;;;;;;5462357;26;20227;-65